createdAt,value
2019-04-22T00:00:36.209Z,28.20
2019-04-22T00:03:07.488Z,28.20
2019-04-22T00:05:57.152Z,28.20
2019-04-22T00:08:29.621Z,28.40
2019-04-22T00:11:06.367Z,28.40
2019-04-22T00:13:40.222Z,28.50
2019-04-22T00:15:59.273Z,28.60
2019-04-22T00:18:54.917Z,28.60
2019-04-22T00:21:12.978Z,28.60
2019-04-22T00:23:40.369Z,28.60
2019-04-22T00:26:20.720Z,28.60
2019-04-22T00:28:49.699Z,28.70
2019-04-22T00:31:20.700Z,28.80
2019-04-22T00:33:57.692Z,28.90
2019-04-22T00:36:29.171Z,28.60
2019-04-22T00:38:59.251Z,29.00
2019-04-22T00:41:35.943Z,29.00
2019-04-22T00:44:07.163Z,29.10
2019-04-22T00:46:38.319Z,29.20
2019-04-22T00:49:52.770Z,29.40
2019-04-22T00:51:44.713Z,29.30
2019-04-22T00:54:11.910Z,29.40
2019-04-22T00:56:45.479Z,29.50
2019-04-22T00:59:14.362Z,29.50
2019-04-22T01:01:46.047Z,30.10
2019-04-22T01:04:22.303Z,29.80
2019-04-22T01:06:49.708Z,29.90
2019-04-22T01:09:17.101Z,29.90
2019-04-22T01:11:53.974Z,29.90
2019-04-22T01:14:23.627Z,29.90
2019-04-22T01:16:53.736Z,30.00
2019-04-22T01:19:33.358Z,30.00
2019-04-22T01:21:58.294Z,30.00
2019-04-22T01:24:27.805Z,30.00
2019-04-22T01:26:57.390Z,30.10
2019-04-22T01:29:22.633Z,30.20
2019-04-22T01:31:45.331Z,30.30
2019-04-22T01:34:28.830Z,30.30
2019-04-22T01:37:03.419Z,30.50
2019-04-22T01:39:43.595Z,30.50
2019-04-22T01:42:12.433Z,30.50
2019-04-22T01:44:45.469Z,30.60
2019-04-22T01:47:23.240Z,30.80
2019-04-22T01:49:46.173Z,30.80
2019-04-22T01:52:20.329Z,30.90
2019-04-22T01:55:01.657Z,31.00
2019-04-22T01:57:22.986Z,31.20
2019-04-22T01:59:51.985Z,31.20
2019-04-22T02:02:30.947Z,31.30
2019-04-22T02:05:04.953Z,31.30
2019-04-22T02:10:04.012Z,31.60
2019-04-22T02:15:06.356Z,31.70
2019-04-22T02:20:12.343Z,32.10
2019-04-22T02:23:43.903Z,32.20
2019-04-22T02:26:05.983Z,32.20
2019-04-22T02:28:36.725Z,32.10
2019-04-22T02:31:20.804Z,32.30
2019-04-22T02:49:04.107Z,32.90
2019-04-22T02:54:27.454Z,33.10
2019-04-22T02:59:03.927Z,33.20
2019-04-22T03:01:29.806Z,33.20
2019-04-22T03:04:04.442Z,33.50
2019-04-22T03:09:03.459Z,33.60
2019-04-22T03:11:42.037Z,33.60
2019-04-22T03:14:04.777Z,33.70
2019-04-22T03:16:41.053Z,33.80
2019-04-22T03:19:16.441Z,33.90
2019-04-22T03:21:36.667Z,33.90
2019-04-22T03:24:20.355Z,34.00
2019-04-22T03:29:14.920Z,34.00
2019-04-22T03:39:45.557Z,34.20
2019-04-22T03:52:14.783Z,34.40
2019-04-22T03:54:46.402Z,34.50
2019-04-22T03:59:56.815Z,34.80
2019-04-22T04:02:21.400Z,34.80
2019-04-22T04:04:42.592Z,34.90
2019-04-22T04:07:37.106Z,35.00
2019-04-22T04:12:25.039Z,35.20
2019-04-22T04:17:29.145Z,35.30
2019-04-22T04:22:43.021Z,35.40
2019-04-22T04:25:29.405Z,35.50
2019-04-22T04:27:54.023Z,35.70
2019-04-22T04:32:55.442Z,35.80
2019-04-22T04:37:46.830Z,35.90
2019-04-22T04:42:46.409Z,36.10
2019-04-22T04:50:20.567Z,36.40
2019-04-22T04:53:02.588Z,36.40
2019-04-22T04:55:23.085Z,36.60
2019-04-22T05:00:39.573Z,36.80
2019-04-22T05:08:19.712Z,37.00
2019-04-22T05:10:47.987Z,37.10
2019-04-22T05:13:12.322Z,37.20
2019-04-22T05:15:40.086Z,37.20
2019-04-22T05:20:44.685Z,37.20
2019-04-22T05:23:14.184Z,37.40
2019-04-22T05:25:33.711Z,37.40
2019-04-22T05:28:06.832Z,37.50
2019-04-22T05:30:43.721Z,37.60
2019-04-22T05:33:09.322Z,37.50
2019-04-22T05:35:39.500Z,37.70
2019-04-22T05:38:17.700Z,37.70
2019-04-22T05:40:40.853Z,37.80
2019-04-22T05:43:17.109Z,38.00
2019-04-22T05:45:56.314Z,38.00
2019-04-22T05:48:23.160Z,38.10
2019-04-22T05:50:57.923Z,38.10
2019-04-22T05:53:19.517Z,38.20
2019-04-22T05:55:56.622Z,38.30
2019-04-22T05:58:29.357Z,38.30
2019-04-22T06:01:36.669Z,38.40
2019-04-22T06:03:41.945Z,38.50
2019-04-22T06:06:13.701Z,38.60
2019-04-22T06:08:45.598Z,38.70
2019-04-22T06:11:24.091Z,38.80
2019-04-22T06:13:45.252Z,38.70
2019-04-22T06:16:20.536Z,38.80
2019-04-22T06:18:55.181Z,38.80
2019-04-22T06:21:38.607Z,38.90
2019-04-22T06:23:54.666Z,39.00
2019-04-22T06:26:40.601Z,38.90
2019-04-22T06:31:36.889Z,39.10
2019-04-22T06:34:02.293Z,39.10
2019-04-22T06:36:37.785Z,39.10
2019-04-22T06:39:10.557Z,39.10
2019-04-22T06:41:35.346Z,39.20
2019-04-22T06:44:16.235Z,39.20
2019-04-22T06:46:41.870Z,39.20
2019-04-22T06:49:18.686Z,39.30
2019-04-22T06:51:45.064Z,39.30
2019-04-22T06:54:14.064Z,39.40
2019-04-22T06:56:48.542Z,39.40
2019-04-22T06:59:18.400Z,39.50
2019-04-22T07:01:50.347Z,39.60
2019-04-22T07:04:23.272Z,39.50
2019-04-22T07:06:56.285Z,39.60
2019-04-22T07:09:28.754Z,39.70
2019-04-22T07:11:57.594Z,39.70
2019-04-22T07:14:26.552Z,39.60
2019-04-22T07:17:03.634Z,39.90
2019-04-22T07:19:33.543Z,39.80
2019-04-22T07:22:09.702Z,40.00
2019-04-22T07:27:11.613Z,40.50
2019-04-22T07:29:39.321Z,39.80
2019-04-22T07:32:51.631Z,39.70
2019-04-22T07:34:49.265Z,39.50
2019-04-22T07:39:45.579Z,39.50
2019-04-22T07:42:19.227Z,39.30
2019-04-22T07:44:53.216Z,39.30
2019-04-22T07:47:27.493Z,39.30
2019-04-22T07:49:50.931Z,39.20
2019-04-22T07:52:22.912Z,39.20
2019-04-22T07:54:56.907Z,39.10
2019-04-22T08:00:04.096Z,39.00
2019-04-22T08:02:39.167Z,39.00
2019-04-22T08:07:38.357Z,38.80
2019-04-22T08:10:17.022Z,38.70
2019-04-22T08:12:41.529Z,38.70
2019-04-22T08:15:12.618Z,38.70
2019-04-22T08:20:18.928Z,38.60
2019-04-22T08:22:52.226Z,38.50
2019-04-22T08:25:16.512Z,38.50
2019-04-22T08:27:50.548Z,38.40
2019-04-22T08:30:28.533Z,38.40
2019-04-22T08:32:54.502Z,38.40
2019-04-22T08:35:29.285Z,38.30
2019-04-22T08:43:05.545Z,38.70
2019-04-22T08:45:33.851Z,38.20
2019-04-22T08:48:01.630Z,38.10
2019-04-22T08:50:33.978Z,38.10
2019-04-22T08:53:10.918Z,38.00
2019-04-22T08:55:51.972Z,38.00
2019-04-22T09:00:49.917Z,37.90
2019-04-22T09:03:16.281Z,37.80
2019-04-22T09:05:58.070Z,37.80
2019-04-22T09:08:18.871Z,37.80
2019-04-22T09:10:51.919Z,37.70
2019-04-22T09:13:20.584Z,37.20
2019-04-22T09:15:58.819Z,37.60
2019-04-22T09:18:33.235Z,37.50
2019-04-22T09:21:07.320Z,37.40
2019-04-22T09:23:30.233Z,37.40
2019-04-22T09:26:05.982Z,37.30
2019-04-22T09:28:37.773Z,37.30
2019-04-22T09:31:05.783Z,37.20
2019-04-22T09:36:16.220Z,37.00
2019-04-22T09:41:16.888Z,36.80
2019-04-22T09:46:16.667Z,36.60
2019-04-22T09:48:55.360Z,37.30
2019-04-22T09:51:18.715Z,36.50
2019-04-22T09:56:27.629Z,36.30
2019-04-22T09:58:58.964Z,36.10
2019-04-22T10:04:05.392Z,36.10
2019-04-22T10:14:05.590Z,35.80
2019-04-22T10:19:11.447Z,35.40
2019-04-22T10:21:44.652Z,35.30
2019-04-22T10:24:09.495Z,35.00
2019-04-22T10:26:44.010Z,34.80
2019-04-22T10:29:20.340Z,34.80
2019-04-22T10:31:49.490Z,34.80
2019-04-22T10:34:09.258Z,34.70
2019-04-22T10:36:25.963Z,34.60
2019-04-22T10:38:55.802Z,34.50
2019-04-22T10:41:26.435Z,34.40
2019-04-22T10:43:57.060Z,34.30
2019-04-22T10:46:28.320Z,34.30
2019-04-22T10:48:58.373Z,34.10
2019-04-22T10:51:28.698Z,34.00
2019-04-22T10:53:59.699Z,33.60
2019-04-22T10:56:30.642Z,33.50
2019-04-22T10:59:00.680Z,33.30
2019-04-22T11:01:31.751Z,33.30
2019-04-22T11:04:03.346Z,33.20
2019-04-22T11:06:39.026Z,33.10
2019-04-22T11:09:08.175Z,33.00
2019-04-22T11:11:49.201Z,32.80
2019-04-22T11:14:10.809Z,32.60
2019-04-22T11:16:41.580Z,32.60
2019-04-22T11:19:12.223Z,32.50
2019-04-22T11:21:43.329Z,32.50
2019-04-22T11:24:14.836Z,32.40
2019-04-22T11:26:45.247Z,32.50
2019-04-22T11:29:15.485Z,32.30
2019-04-22T11:31:46.452Z,32.30
2019-04-22T11:34:17.456Z,32.20
2019-04-22T11:36:48.060Z,32.10
2019-04-22T11:39:17.897Z,32.00
2019-04-22T11:41:47.743Z,31.80
2019-04-22T11:44:19.163Z,31.80
2019-04-22T11:46:49.570Z,31.60
2019-04-22T11:49:26.252Z,31.60
2019-04-22T11:51:56.515Z,31.30
2019-04-22T11:54:26.307Z,31.30
2019-04-22T11:56:57.220Z,31.10
2019-04-22T11:59:26.977Z,31.10
2019-04-22T12:01:57.085Z,31.00
2019-04-22T12:06:54.061Z,30.90
2019-04-22T12:09:25.710Z,30.50
2019-04-22T12:11:55.926Z,30.60
2019-04-22T12:14:25.752Z,30.40
2019-04-22T12:16:57.273Z,30.90
2019-04-22T12:19:27.515Z,30.20
2019-04-22T12:21:59.105Z,30.20
2019-04-22T12:24:30.270Z,30.00
2019-04-22T12:27:02.152Z,30.00
2019-04-22T12:29:33.200Z,29.90
2019-04-22T12:32:03.240Z,29.80
2019-04-22T12:34:33.500Z,29.80
2019-04-22T12:37:04.535Z,29.60
2019-04-22T12:39:35.713Z,29.40
2019-04-22T12:42:06.163Z,29.30
2019-04-22T12:44:38.488Z,29.30
2019-04-22T12:47:07.929Z,29.70
2019-04-22T12:49:40.660Z,28.70
2019-04-22T12:52:21.927Z,28.80
2019-04-22T12:54:40.784Z,28.60
2019-04-22T12:57:10.793Z,29.00
2019-04-22T12:59:41.790Z,28.50
2019-04-22T13:02:13.354Z,28.60
2019-04-22T13:04:44.089Z,28.50
2019-04-22T13:07:13.652Z,28.20
2019-04-22T13:09:43.718Z,28.10
2019-04-22T13:12:15.199Z,28.00
2019-04-22T13:14:45.575Z,27.70
2019-04-22T13:17:17.110Z,27.50
2019-04-22T13:19:47.838Z,27.50
2019-04-22T13:22:18.755Z,27.20
2019-04-22T13:24:50.014Z,27.30
2019-04-22T13:27:19.569Z,27.00
2019-04-22T13:29:50.962Z,26.80
2019-04-22T13:32:22.612Z,26.80
2019-04-22T13:34:57.184Z,26.60
2019-04-22T13:37:25.272Z,26.10
2019-04-22T13:39:55.044Z,26.30
2019-04-22T13:42:25.457Z,26.00
2019-04-22T13:44:58.033Z,26.30
2019-04-22T13:47:41.921Z,26.20
2019-04-22T13:50:36.116Z,26.30
2019-04-22T13:55:36.291Z,26.10
2019-04-22T13:57:53.420Z,26.10
2019-04-22T14:00:08.550Z,25.80
2019-04-22T14:03:04.663Z,25.30
2019-04-22T14:05:37.026Z,25.50
2019-04-22T14:08:08.263Z,25.40
2019-04-22T14:10:38.661Z,25.40
2019-04-22T14:13:09.971Z,25.30
2019-04-22T14:15:40.257Z,25.00
2019-04-22T14:18:10.755Z,25.20
2019-04-22T14:20:40.943Z,25.20
2019-04-22T14:23:12.319Z,24.90
2019-04-22T14:25:43.016Z,24.90
2019-04-22T14:28:17.290Z,24.60
2019-04-22T14:30:44.419Z,24.70
2019-04-22T14:33:14.161Z,24.60
2019-04-22T14:35:43.792Z,24.40
2019-04-22T14:38:14.202Z,24.20
2019-04-22T14:40:45.498Z,24.20
2019-04-22T14:43:37.535Z,23.90
2019-04-22T14:48:48.096Z,24.00
2019-04-22T14:51:09.093Z,23.90
2019-04-22T14:53:41.661Z,23.50
2019-04-22T14:55:52.682Z,23.70
2019-04-22T14:58:22.761Z,23.40
2019-04-22T15:00:54.773Z,23.30
2019-04-22T15:03:25.846Z,23.30
2019-04-22T15:05:56.029Z,23.20
2019-04-22T15:08:27.196Z,23.10
2019-04-22T15:10:58.268Z,23.10
2019-04-22T15:13:29.451Z,22.60
2019-04-22T15:16:25.662Z,22.70
2019-04-22T15:19:09.658Z,22.20
2019-04-22T15:21:40.914Z,22.50
2019-04-22T15:24:27.590Z,22.70
2019-04-22T15:26:58.830Z,22.70
2019-04-22T15:29:29.608Z,22.80
2019-04-22T15:31:59.963Z,22.90
2019-04-22T15:34:30.585Z,22.70
2019-04-22T15:37:02.325Z,22.60
2019-04-22T15:39:31.725Z,22.60
2019-04-22T15:42:11.538Z,22.80
2019-04-22T15:44:33.828Z,22.80
2019-04-22T15:47:05.003Z,22.90
2019-04-22T15:49:36.035Z,23.00
2019-04-22T15:52:07.541Z,23.00
2019-04-22T15:54:37.684Z,22.90
2019-04-22T15:57:08.902Z,22.60
2019-04-22T15:59:59.333Z,22.70
2019-04-22T16:02:12.007Z,22.80
2019-04-22T16:04:41.789Z,22.80
2019-04-22T16:07:12.781Z,22.90
2019-04-22T16:09:43.533Z,22.80
2019-04-22T16:12:22.489Z,22.90
2019-04-22T16:14:50.776Z,23.00
2019-04-22T16:17:16.862Z,22.80
2019-04-22T16:19:47.044Z,22.70
2019-04-22T16:22:19.715Z,22.90
2019-04-22T16:25:08.908Z,23.00
2019-04-22T16:27:38.692Z,22.90
2019-04-22T16:30:13.002Z,22.90
2019-04-22T16:32:43.466Z,22.70
2019-04-22T16:35:14.623Z,22.60
2019-04-22T16:37:44.567Z,22.60
2019-04-22T16:40:14.727Z,22.40
2019-04-22T16:42:52.470Z,22.20
2019-04-22T16:45:17.690Z,22.30
2019-04-22T16:47:47.410Z,22.30
2019-04-22T16:50:18.273Z,22.20
2019-04-22T16:52:48.342Z,22.00
2019-04-22T16:55:19.188Z,21.80
2019-04-22T16:57:48.754Z,21.90
2019-04-22T17:00:18.623Z,21.60
2019-04-22T17:03:06.745Z,21.60
2019-04-22T17:05:55.836Z,21.70
2019-04-22T17:08:28.472Z,21.40
2019-04-22T17:10:59.758Z,21.70
2019-04-22T17:13:32.765Z,21.60
2019-04-22T17:16:02.396Z,21.80
2019-04-22T17:18:33.091Z,22.00
2019-04-22T17:21:05.425Z,22.00
2019-04-22T17:23:34.008Z,22.20
2019-04-22T17:26:03.572Z,22.30
2019-04-22T17:28:33.402Z,22.00
2019-04-22T17:31:04.539Z,22.10
2019-04-22T17:33:35.022Z,22.20
2019-04-22T17:36:05.383Z,22.30
2019-04-22T17:38:45.389Z,22.40
2019-04-22T17:41:22.090Z,22.50
2019-04-22T17:44:18.592Z,22.60
2019-04-22T17:46:41.717Z,22.70
2019-04-22T17:49:33.934Z,22.80
2019-04-22T17:52:17.126Z,22.60
2019-04-22T17:54:49.267Z,22.80
2019-04-22T17:57:22.406Z,22.90
2019-04-22T17:59:51.806Z,22.90
2019-04-22T18:02:23.897Z,22.80
2019-04-22T18:04:46.040Z,22.80
2019-04-22T18:10:16.449Z,22.90
2019-04-22T18:12:40.262Z,23.00
2019-04-22T18:15:06.100Z,23.00
2019-04-22T18:17:37.410Z,23.30
2019-04-22T18:20:00.335Z,23.30
2019-04-22T18:22:29.331Z,23.20
2019-04-22T18:25:04.241Z,23.40
2019-04-22T18:27:53.955Z,23.50
2019-04-22T18:30:16.724Z,23.50
2019-04-22T18:32:47.069Z,23.50
2019-04-22T18:35:20.979Z,23.30
2019-04-22T18:37:57.477Z,23.50
2019-04-22T18:40:24.256Z,23.50
2019-04-22T18:42:58.528Z,23.60
2019-04-22T18:45:39.648Z,23.70
2019-04-22T18:47:48.868Z,23.70
2019-04-22T18:50:41.755Z,23.70
2019-04-22T18:53:44.587Z,23.70
2019-04-22T18:56:19.116Z,23.80
2019-04-22T18:58:39.468Z,23.90
2019-04-22T19:01:01.824Z,23.90
2019-04-22T19:03:42.761Z,23.90
2019-04-22T19:06:39.993Z,23.90
2019-04-22T19:08:57.929Z,23.80
2019-04-22T19:11:38.621Z,23.80
2019-04-22T19:14:05.936Z,23.90
2019-04-22T19:19:22.760Z,23.80
2019-04-22T19:21:34.047Z,24.00
2019-04-22T19:24:04.244Z,23.90
2019-04-22T19:26:55.828Z,23.80
2019-04-22T19:29:06.905Z,23.90
2019-04-22T19:31:43.948Z,23.90
2019-04-22T19:34:11.010Z,23.90
2019-04-22T19:36:48.560Z,24.00
2019-04-22T19:39:13.133Z,24.00
2019-04-22T19:41:53.385Z,23.90
2019-04-22T19:44:25.049Z,23.90
2019-04-22T19:47:09.009Z,24.00
2019-04-22T19:49:33.422Z,24.20
2019-04-22T19:52:05.479Z,24.10
2019-04-22T19:54:24.415Z,24.10
2019-04-22T19:56:50.956Z,24.20
2019-04-22T19:59:25.051Z,24.20
2019-04-22T20:02:07.387Z,24.20
2019-04-22T20:04:52.465Z,24.20
2019-04-22T20:07:21.478Z,24.30
2019-04-22T20:10:00.128Z,24.30
2019-04-22T20:12:23.529Z,24.90
2019-04-22T20:14:57.624Z,24.30
2019-04-22T20:17:40.082Z,24.40
2019-04-22T20:20:06.346Z,24.50
2019-04-22T20:22:30.258Z,24.50
2019-04-22T20:24:53.331Z,24.60
2019-04-22T20:27:36.341Z,24.60
2019-04-22T20:30:05.085Z,24.80
2019-04-22T20:32:37.288Z,24.80
2019-04-22T20:35:17.275Z,24.90
2019-04-22T20:37:47.946Z,25.10
2019-04-22T20:40:17.548Z,25.10
2019-04-22T20:45:15.230Z,25.20
2019-04-22T20:47:42.818Z,25.30
2019-04-22T20:50:23.796Z,25.40
2019-04-22T20:52:59.240Z,25.60
2019-04-22T20:55:19.155Z,25.60
2019-04-22T20:58:02.352Z,25.70
2019-04-22T21:00:22.445Z,25.70
2019-04-22T21:02:48.753Z,25.90
2019-04-22T21:05:23.394Z,26.00
2019-04-22T21:08:06.591Z,26.00
2019-04-22T21:10:30.082Z,26.10
2019-04-22T21:13:00.204Z,26.30
2019-04-22T21:15:45.870Z,26.30
2019-04-22T21:18:05.581Z,26.40
2019-04-22T21:20:45.720Z,26.50
2019-04-22T21:23:15.091Z,26.60
2019-04-22T21:25:32.649Z,26.70
2019-04-22T21:28:18.123Z,26.90
2019-04-22T21:30:43.305Z,26.90
2019-04-22T21:33:12.947Z,27.00
2019-04-22T21:36:03.074Z,27.10
2019-04-22T21:38:21.610Z,27.20
2019-04-22T21:40:52.240Z,27.30
2019-04-22T21:43:27.087Z,27.40
2019-04-22T21:45:57.261Z,27.50
2019-04-22T21:48:31.353Z,27.50
2019-04-22T21:51:04.496Z,27.60
2019-04-22T21:53:41.667Z,27.70
2019-04-22T21:56:11.584Z,27.90
2019-04-22T21:58:57.381Z,27.80
2019-04-22T22:04:16.987Z,28.10
2019-04-22T22:06:40.435Z,28.10
2019-04-22T22:09:20.409Z,28.20
2019-04-22T22:11:49.246Z,28.30
2019-04-22T22:14:22.551Z,28.40
2019-04-22T22:16:47.252Z,28.40
2019-04-22T22:19:30.169Z,28.60
2019-04-22T22:22:32.713Z,28.60
2019-04-22T22:24:33.864Z,28.60
2019-04-22T22:27:04.851Z,28.70
2019-04-22T22:29:43.281Z,28.80
2019-04-22T22:32:05.051Z,28.90
2019-04-22T22:34:34.767Z,28.60
2019-04-22T22:36:58.553Z,29.00
2019-04-22T22:39:26.021Z,29.20
2019-04-22T22:41:49.911Z,29.30
2019-04-22T22:44:29.504Z,29.30
2019-04-22T22:47:10.124Z,29.30
2019-04-22T22:49:48.241Z,29.40
2019-04-22T22:52:40.891Z,29.60
2019-04-22T22:54:46.673Z,29.60
2019-04-22T22:57:28.982Z,29.60
2019-04-22T22:59:50.224Z,29.80
2019-04-22T23:02:27.125Z,29.90
2019-04-22T23:04:51.118Z,30.00
2019-04-22T23:07:28.837Z,30.00
2019-04-22T23:09:56.482Z,30.00
2019-04-22T23:12:44.355Z,30.10
2019-04-22T23:14:59.027Z,30.20
2019-04-22T23:17:18.124Z,30.30
2019-04-22T23:19:50.263Z,30.40
2019-04-22T23:22:25.286Z,30.40
2019-04-22T23:25:14.970Z,30.50
2019-04-22T23:27:42.112Z,30.70
2019-04-22T23:30:19.338Z,30.70
2019-04-22T23:32:58.119Z,30.80
2019-04-22T23:35:42.530Z,31.00
2019-04-22T23:38:20.001Z,31.20
2019-04-22T23:40:47.839Z,31.00
2019-04-22T23:43:28.946Z,31.30
2019-04-22T23:46:02.313Z,31.40
2019-04-22T23:48:27.235Z,31.40
2019-04-22T23:51:03.395Z,31.50
2019-04-22T23:56:04.316Z,31.80
